AV - LB | Pilotos de la V.A




 METAR AND TAF INFORMATION
METAR FOR RJSR
ADDS - METARS form results

(0314 UTC 19 May 2021)
Data provider http://aviationweather.gov/metar/data/
 
METAR text: RJSR 190300Z 31003KT 260V010 9999 -SHRA FEW005 SCT010 BKN020 18/16 Q1010
Conditions at: RJSR (ODATE-NOSHIRO , JP) observed 0300 UTC 19 May 2021
Temperature: 18.0°C (64°F)
Dewpoint: 16.0°C (61°F) [RH = 88%]
Pressure (altimeter): 29.82 inches Hg (1010.0 mb)
Winds: from the NW (310 degrees) at 3 MPH (3 knots; 1.5 m/s)
Visibility: 6 or more miles (10+ km)
Ceiling: 2000 feet AGL
Clouds: few clouds at 500 feet AGL
scattered clouds at 1000 feet AGL
broken clouds at 2000 feet AGL
Weather: -SHRA  (light rain showers)

 AIRPORT MAP

 RUNWAY INFORMATION
Runway 11 Runway length 6562 ft Runway width 148 ft
Runway elevation 259 ft Runway displaced threshold 0 ft Runway heading 100
Runway 29 Runway length 6562 ft Runway width 148 ft
Runway elevation 292 ft Runway displaced threshold 0 ft Runway heading 280

 AIRPORT FREQUENCIES
Type RDO Name RDO Frequency 118.75 MHZ

 AIRPORT NEAR NAVIGATION AIDS
Type VOR-DME Name Odate Noshiro Frequency 114750 KHZ